createdAt,value
2023-01-06T00:00:08.192Z,18.80
2023-01-06T00:07:34.833Z,19.10
2023-01-06T00:24:54.942Z,19.20
2023-01-06T00:42:15.127Z,18.80
2023-01-06T00:47:12.770Z,18.90
2023-01-06T00:57:08.083Z,18.90
2023-01-06T00:59:37.666Z,18.70
2023-01-06T01:09:32.502Z,18.80
2023-01-06T01:12:14.152Z,18.80
2023-01-06T01:14:47.135Z,18.90
2023-01-06T01:17:17.458Z,19.10
2023-01-06T01:32:09.902Z,18.70
2023-01-06T01:45:02.997Z,18.80
2023-01-06T01:47:40.073Z,18.60
2023-01-06T01:50:14.439Z,18.80
2023-01-06T01:55:13.438Z,18.70
2023-01-06T01:57:49.905Z,18.50
2023-01-06T02:00:20.076Z,18.60
2023-01-06T02:02:50.469Z,18.80
2023-01-06T02:05:22.928Z,18.70
2023-01-06T02:12:52.286Z,18.70
2023-01-06T02:15:22.721Z,18.80
2023-01-06T02:18:12.377Z,18.70
2023-01-06T02:20:51.009Z,18.50
2023-01-06T02:23:43.912Z,18.60
2023-01-06T02:26:45.166Z,18.70
2023-01-06T02:29:56.444Z,18.70
2023-01-06T02:32:38.502Z,18.60
2023-01-06T02:35:22.465Z,18.70
2023-01-06T02:38:01.719Z,18.70
2023-01-06T02:40:42.272Z,18.60
2023-01-06T02:43:16.872Z,18.70
2023-01-06T02:45:55.935Z,18.80
2023-01-06T02:48:29.862Z,18.70
2023-01-06T02:51:04.988Z,18.70
2023-01-06T02:53:40.543Z,18.50
2023-01-06T02:58:45.853Z,18.60
2023-01-06T03:01:19.096Z,18.70
2023-01-06T03:03:49.529Z,18.50
2023-01-06T03:06:22.045Z,18.80
2023-01-06T03:08:53.103Z,18.60
2023-01-06T03:13:53.929Z,18.50
2023-01-06T03:18:53.702Z,18.60
2023-01-06T03:21:24.331Z,18.60
2023-01-06T03:31:27.447Z,18.50
2023-01-06T03:34:05.165Z,18.60
2023-01-06T03:36:42.511Z,18.70
2023-01-06T03:39:17.511Z,18.70
2023-01-06T03:42:05.850Z,18.70
2023-01-06T03:44:43.349Z,18.80
2023-01-06T03:47:17.181Z,18.70
2023-01-06T03:49:54.960Z,18.90
2023-01-06T03:52:28.846Z,19.10
2023-01-06T03:55:03.923Z,18.30
2023-01-06T03:57:36.422Z,18.60
2023-01-06T04:00:11.389Z,18.50
2023-01-06T04:02:40.747Z,18.60
2023-01-06T04:05:13.503Z,18.70
2023-01-06T04:10:11.459Z,18.60
2023-01-06T04:15:09.314Z,18.60
2023-01-06T04:22:36.457Z,18.50
2023-01-06T04:39:56.609Z,18.50
2023-01-06T04:57:16.765Z,18.60
2023-01-06T05:14:43.977Z,18.90
2023-01-06T05:29:37.042Z,19.00
2023-01-06T05:32:08.218Z,19.00
2023-01-06T05:49:29.606Z,19.20
2023-01-06T05:51:57.725Z,19.10
2023-01-06T05:54:26.926Z,19.00
2023-01-06T06:06:51.273Z,18.10
2023-01-06T06:26:44.693Z,19.00
2023-01-06T06:34:13.836Z,19.00
2023-01-06T06:41:40.739Z,19.60
2023-01-06T06:59:03.402Z,19.40
2023-01-06T07:01:32.599Z,19.70
2023-01-06T07:06:29.860Z,20.50
2023-01-06T07:11:26.641Z,19.80
2023-01-06T07:16:26.788Z,19.90
2023-01-06T07:18:55.144Z,20.10
2023-01-06T07:21:23.274Z,20.30
2023-01-06T07:26:19.828Z,20.20
2023-01-06T07:28:47.989Z,20.10
2023-01-06T07:31:16.680Z,19.60
2023-01-06T07:33:46.223Z,20.10
2023-01-06T07:36:14.373Z,20.30
2023-01-06T07:38:42.522Z,20.00
2023-01-06T07:46:07.955Z,20.30
2023-01-06T07:48:37.632Z,20.20
2023-01-06T07:51:07.361Z,20.00
2023-01-06T07:53:36.348Z,20.00
2023-01-06T07:56:05.305Z,20.20
2023-01-06T07:58:33.623Z,19.90
2023-01-06T08:01:07.215Z,19.90
2023-01-06T08:03:35.893Z,19.80
2023-01-06T08:06:09.709Z,19.80
2023-01-06T08:08:39.536Z,20.00
2023-01-06T08:16:06.268Z,19.90
2023-01-06T08:18:36.077Z,19.70
2023-01-06T08:21:05.841Z,19.90
2023-01-06T08:23:36.581Z,19.80
2023-01-06T08:26:05.539Z,19.80
2023-01-06T08:28:35.025Z,19.10
2023-01-06T08:31:04.328Z,19.80
2023-01-06T08:33:32.542Z,19.70
2023-01-06T08:36:01.757Z,19.80
2023-01-06T08:38:31.713Z,20.10
2023-01-06T08:41:01.421Z,19.70
2023-01-06T08:46:00.555Z,20.00
2023-01-06T08:48:29.247Z,19.80
2023-01-06T08:51:02.807Z,19.90
2023-01-06T08:53:31.027Z,19.90
2023-01-06T08:56:00.789Z,19.60
2023-01-06T08:58:28.969Z,19.90
2023-01-06T09:00:57.746Z,19.50
2023-01-06T09:05:55.440Z,19.90
2023-01-06T09:08:23.812Z,20.10
2023-01-06T09:10:52.259Z,19.80
2023-01-06T09:13:21.780Z,19.60
2023-01-06T09:15:52.965Z,19.80
2023-01-06T09:25:47.128Z,20.30
2023-01-06T09:28:15.266Z,19.70
2023-01-06T09:30:47.312Z,20.10
2023-01-06T09:33:15.956Z,20.00
2023-01-06T09:35:44.894Z,19.90
2023-01-06T09:38:13.101Z,19.80
2023-01-06T09:40:50.262Z,20.50
2023-01-06T09:43:26.933Z,19.80
2023-01-06T09:46:02.243Z,20.00
2023-01-06T09:48:34.744Z,20.10
2023-01-06T09:51:09.376Z,20.00
2023-01-06T09:53:41.773Z,19.40
2023-01-06T09:56:15.065Z,20.20
2023-01-06T09:58:48.123Z,19.80
2023-01-06T10:01:23.900Z,19.90
2023-01-06T10:03:55.998Z,19.90
2023-01-06T10:06:32.035Z,20.00
2023-01-06T10:09:09.233Z,20.50
2023-01-06T10:11:49.731Z,19.90
2023-01-06T10:14:25.996Z,20.20
2023-01-06T10:17:31.157Z,20.10
2023-01-06T10:20:09.596Z,20.10
2023-01-06T10:22:48.465Z,19.80
2023-01-06T10:25:20.530Z,20.10
2023-01-06T10:27:52.305Z,19.40
2023-01-06T10:32:55.775Z,19.90
2023-01-06T10:35:27.361Z,19.90
2023-01-06T10:37:57.256Z,20.00
2023-01-06T10:43:00.230Z,20.00
2023-01-06T10:48:01.672Z,20.10
2023-01-06T10:55:47.262Z,20.10
2023-01-06T10:58:23.803Z,20.10
2023-01-06T11:01:00.432Z,20.30
2023-01-06T11:03:34.894Z,20.00
2023-01-06T11:06:13.962Z,20.20
2023-01-06T11:11:27.250Z,20.10
2023-01-06T11:13:58.900Z,20.10
2023-01-06T11:16:29.103Z,19.70
2023-01-06T11:19:01.142Z,19.70
2023-01-06T11:21:40.660Z,20.00
2023-01-06T11:24:19.031Z,19.90
2023-01-06T11:26:53.226Z,20.00
2023-01-06T11:29:30.879Z,20.20
2023-01-06T11:32:03.489Z,19.60
2023-01-06T11:34:33.892Z,20.10
2023-01-06T11:37:02.122Z,20.10
2023-01-06T11:39:34.292Z,20.30
2023-01-06T11:42:10.994Z,20.40
2023-01-06T11:44:41.319Z,20.20
2023-01-06T11:47:14.875Z,21.20
2023-01-06T11:49:49.651Z,20.70
2023-01-06T11:52:24.309Z,21.10
2023-01-06T11:55:01.553Z,20.60
2023-01-06T11:57:35.876Z,20.90
2023-01-06T12:00:35.777Z,21.40
2023-01-06T12:03:12.471Z,20.90
2023-01-06T12:05:51.889Z,21.10
2023-01-06T12:08:24.450Z,21.00
2023-01-06T12:10:57.959Z,21.40
2023-01-06T12:13:27.479Z,21.10
2023-01-06T12:16:02.587Z,21.10
2023-01-06T12:18:34.128Z,21.50
2023-01-06T12:21:06.654Z,21.80
2023-01-06T12:23:38.586Z,21.20
2023-01-06T12:26:17.214Z,21.30
2023-01-06T12:28:48.080Z,21.10
2023-01-06T12:31:21.575Z,21.20
2023-01-06T12:33:58.696Z,22.10
2023-01-06T12:36:36.359Z,21.30
2023-01-06T12:39:07.045Z,22.70
2023-01-06T12:41:40.891Z,22.20
2023-01-06T12:44:17.532Z,22.20
2023-01-06T12:46:54.237Z,21.90
2023-01-06T12:49:30.757Z,22.00
2023-01-06T12:52:04.578Z,21.50
2023-01-06T12:54:34.667Z,21.70
2023-01-06T12:57:21.610Z,21.50
2023-01-06T13:00:08.033Z,21.90
2023-01-06T13:02:55.763Z,22.00
2023-01-06T13:05:47.227Z,23.20
2023-01-06T13:08:28.442Z,22.70
2023-01-06T13:11:08.288Z,23.30
2023-01-06T13:13:43.848Z,23.20
2023-01-06T13:16:20.127Z,22.90
2023-01-06T13:18:58.473Z,23.10
2023-01-06T13:21:27.329Z,23.30
2023-01-06T13:24:19.519Z,23.60
2023-01-06T13:27:17.399Z,23.60
2023-01-06T13:30:02.033Z,24.30
2023-01-06T13:32:48.256Z,24.20
2023-01-06T13:35:28.480Z,25.70
2023-01-06T13:38:14.107Z,26.00
2023-01-06T13:40:45.404Z,25.40
2023-01-06T13:43:23.611Z,25.90
2023-01-06T13:45:58.782Z,26.10
2023-01-06T13:48:30.921Z,24.90
2023-01-06T13:51:00.850Z,24.80
2023-01-06T13:53:29.046Z,24.90
2023-01-06T13:56:27.186Z,24.60
2023-01-06T13:59:20.727Z,24.10
2023-01-06T14:01:49.471Z,24.00
2023-01-06T14:04:47.365Z,23.80
2023-01-06T14:07:17.495Z,23.70
2023-01-06T14:09:50.969Z,24.00
2023-01-06T14:12:24.065Z,23.60
2023-01-06T14:15:00.986Z,23.30
2023-01-06T14:17:39.341Z,23.50
2023-01-06T14:20:22.577Z,23.00
2023-01-06T14:25:31.740Z,23.60
2023-01-06T14:28:26.917Z,23.50
2023-01-06T14:31:29.378Z,23.20
2023-01-06T14:33:58.534Z,23.10
2023-01-06T14:36:28.406Z,23.50
2023-01-06T14:38:59.228Z,22.80
2023-01-06T14:41:30.235Z,22.80
2023-01-06T14:44:04.686Z,22.90
2023-01-06T14:46:40.456Z,22.70
2023-01-06T14:49:16.116Z,22.50
2023-01-06T14:51:46.283Z,22.40
2023-01-06T14:54:22.859Z,22.80
2023-01-06T14:56:55.136Z,22.60
2023-01-06T14:59:25.041Z,21.80
2023-01-06T15:01:58.491Z,22.00
2023-01-06T15:04:31.249Z,21.80
2023-01-06T15:07:02.463Z,22.20
2023-01-06T15:09:31.042Z,22.20
2023-01-06T15:11:59.285Z,21.40
2023-01-06T15:14:34.380Z,21.90
2023-01-06T15:17:05.537Z,21.90
2023-01-06T15:19:34.424Z,21.70
2023-01-06T15:22:07.541Z,21.50
2023-01-06T15:24:38.391Z,22.10
2023-01-06T15:27:08.615Z,22.40
2023-01-06T15:29:41.155Z,21.80
2023-01-06T15:32:14.241Z,21.70
2023-01-06T15:34:46.553Z,21.20
2023-01-06T15:39:48.536Z,21.70
2023-01-06T15:42:20.239Z,21.60
2023-01-06T15:44:57.743Z,21.60
2023-01-06T15:47:32.782Z,21.60
2023-01-06T15:50:03.485Z,19.60
2023-01-06T15:52:35.322Z,21.40
2023-01-06T15:55:06.793Z,21.30
2023-01-06T15:57:39.414Z,20.90
2023-01-06T16:00:20.463Z,21.70
2023-01-06T16:02:49.381Z,21.20
2023-01-06T16:05:39.700Z,21.30
2023-01-06T16:08:18.921Z,21.20
2023-01-06T16:10:47.709Z,21.10
2023-01-06T16:13:28.655Z,21.50
2023-01-06T16:16:02.361Z,21.20
2023-01-06T16:18:33.096Z,20.90
2023-01-06T16:21:14.146Z,21.40
2023-01-06T16:23:42.467Z,20.60
2023-01-06T16:26:14.530Z,20.80
2023-01-06T16:28:46.263Z,20.90
2023-01-06T16:31:28.467Z,20.70
2023-01-06T16:33:57.206Z,20.90
2023-01-06T16:36:26.380Z,21.10
2023-01-06T16:38:54.651Z,20.70
2023-01-06T16:41:22.918Z,21.00
2023-01-06T16:46:27.282Z,20.90
2023-01-06T16:48:56.600Z,20.70
2023-01-06T16:51:25.547Z,20.60
2023-01-06T16:56:24.955Z,20.90
2023-01-06T16:58:54.537Z,21.10
2023-01-06T17:01:26.492Z,21.10
2023-01-06T17:03:57.569Z,20.40
2023-01-06T17:06:28.146Z,20.20
2023-01-06T17:08:58.261Z,20.60
2023-01-06T17:11:29.322Z,20.70
2023-01-06T17:13:59.115Z,20.50
2023-01-06T17:16:32.301Z,20.70
2023-01-06T17:19:03.032Z,20.90
2023-01-06T17:21:35.368Z,21.00
2023-01-06T17:24:11.630Z,21.20
2023-01-06T17:26:40.544Z,20.60
2023-01-06T17:29:15.046Z,20.70
2023-01-06T17:31:47.249Z,21.00
2023-01-06T17:34:17.593Z,20.40
2023-01-06T17:36:47.913Z,20.20
2023-01-06T17:39:20.886Z,21.00
2023-01-06T17:44:20.587Z,20.80
2023-01-06T17:46:50.898Z,20.40
2023-01-06T17:49:37.480Z,20.10
2023-01-06T17:52:16.697Z,20.60
2023-01-06T17:55:10.746Z,20.70
2023-01-06T17:57:42.231Z,20.80
2023-01-06T18:00:20.839Z,20.70
2023-01-06T18:02:55.915Z,20.70
2023-01-06T18:06:08.757Z,20.50
2023-01-06T18:08:38.791Z,20.40
2023-01-06T18:13:51.774Z,19.70
2023-01-06T18:19:02.898Z,20.40
2023-01-06T18:21:36.277Z,20.20
2023-01-06T18:24:16.662Z,20.10
2023-01-06T18:26:49.174Z,21.30
2023-01-06T18:29:20.062Z,20.00
2023-01-06T18:31:51.367Z,21.20
2023-01-06T18:34:32.246Z,20.50
2023-01-06T18:37:02.316Z,20.80
2023-01-06T18:39:32.249Z,20.80
2023-01-06T18:44:45.197Z,18.50
2023-01-06T18:47:16.475Z,20.60
2023-01-06T18:49:49.496Z,20.90
2023-01-06T18:55:19.499Z,20.70
2023-01-06T18:57:55.924Z,20.40
2023-01-06T19:00:33.719Z,20.40
2023-01-06T19:03:10.216Z,20.40
2023-01-06T19:05:39.745Z,20.50
2023-01-06T19:08:15.933Z,20.50
2023-01-06T19:10:45.911Z,20.50
2023-01-06T19:13:16.471Z,19.90
2023-01-06T19:15:44.613Z,20.60
2023-01-06T19:18:15.777Z,20.60
2023-01-06T19:20:46.521Z,19.90
2023-01-06T19:23:19.520Z,21.00
2023-01-06T19:25:51.496Z,20.20
2023-01-06T19:28:21.949Z,19.60
2023-01-06T19:30:52.257Z,20.80
2023-01-06T19:33:40.440Z,20.50
2023-01-06T19:36:39.963Z,20.50
2023-01-06T19:39:31.575Z,20.20
2023-01-06T19:42:10.290Z,20.40
2023-01-06T19:44:41.749Z,20.90
2023-01-06T19:47:19.572Z,20.70
2023-01-06T19:49:53.241Z,20.50
2023-01-06T19:52:35.092Z,20.40
2023-01-06T19:55:19.413Z,20.30
2023-01-06T19:57:51.582Z,20.30
2023-01-06T20:00:32.047Z,20.00
2023-01-06T20:03:03.612Z,20.10
2023-01-06T20:05:32.923Z,20.50
2023-01-06T20:08:02.457Z,20.20
2023-01-06T20:15:28.710Z,20.40
2023-01-06T20:17:56.864Z,20.20
2023-01-06T20:22:53.425Z,20.30
2023-01-06T20:25:23.016Z,20.00
2023-01-06T20:27:51.305Z,20.20
2023-01-06T20:30:19.676Z,20.40
2023-01-06T20:32:47.784Z,20.30
2023-01-06T20:35:16.875Z,20.60
2023-01-06T20:37:45.055Z,19.80
2023-01-06T20:40:13.470Z,20.30
2023-01-06T20:42:44.036Z,20.20
2023-01-06T20:45:13.415Z,20.30
2023-01-06T20:47:41.885Z,20.70
2023-01-06T20:50:13.805Z,20.20
2023-01-06T20:52:42.327Z,20.40
2023-01-06T20:55:10.877Z,20.20
2023-01-06T20:57:39.343Z,20.30
2023-01-06T21:00:11.035Z,20.40
2023-01-06T21:02:40.751Z,20.10
2023-01-06T21:05:10.806Z,20.20
2023-01-06T21:07:39.632Z,20.20
2023-01-06T21:10:10.007Z,20.90
2023-01-06T21:12:38.891Z,20.20
2023-01-06T21:15:09.976Z,19.90
2023-01-06T21:17:38.107Z,20.10
2023-01-06T21:20:07.801Z,20.40
2023-01-06T21:22:35.964Z,20.00
2023-01-06T21:25:04.194Z,20.10
2023-01-06T21:27:32.375Z,20.40
2023-01-06T21:30:01.877Z,20.00
2023-01-06T21:32:31.413Z,20.90
2023-01-06T21:34:59.744Z,20.50
2023-01-06T21:39:56.347Z,20.40
2023-01-06T21:42:41.977Z,20.10
2023-01-06T21:45:11.474Z,20.20
2023-01-06T21:47:40.989Z,20.10
2023-01-06T21:50:09.995Z,20.20
2023-01-06T21:52:41.241Z,20.30
2023-01-06T21:55:16.721Z,19.60
2023-01-06T21:57:46.748Z,19.90
2023-01-06T22:00:16.602Z,20.00
2023-01-06T22:02:47.117Z,20.00
2023-01-06T22:07:47.825Z,19.80
2023-01-06T22:10:19.754Z,19.90
2023-01-06T22:12:49.789Z,20.00
2023-01-06T22:15:17.742Z,20.60
2023-01-06T22:17:47.574Z,19.60
2023-01-06T22:20:17.587Z,19.70
2023-01-06T22:22:46.095Z,19.50
2023-01-06T22:25:14.253Z,19.50
2023-01-06T22:32:44.205Z,19.50
2023-01-06T22:35:16.916Z,19.30
2023-01-06T22:37:45.713Z,19.60
2023-01-06T22:40:15.685Z,19.80
2023-01-06T22:45:12.929Z,19.70
2023-01-06T22:47:41.316Z,19.60
2023-01-06T22:50:10.669Z,19.20
2023-01-06T22:52:40.174Z,19.30
2023-01-06T22:55:09.542Z,19.50
2023-01-06T22:57:37.730Z,19.70
2023-01-06T23:00:12.052Z,19.60
2023-01-06T23:02:40.469Z,19.60
2023-01-06T23:05:09.184Z,19.50
2023-01-06T23:07:40.988Z,19.50
2023-01-06T23:10:11.672Z,19.40
2023-01-06T23:12:41.551Z,19.40
2023-01-06T23:15:10.857Z,19.10
2023-01-06T23:17:39.003Z,19.40
2023-01-06T23:20:07.948Z,19.70
2023-01-06T23:25:09.687Z,19.50
2023-01-06T23:27:39.044Z,19.70
2023-01-06T23:32:36.343Z,19.40
2023-01-06T23:35:04.795Z,19.60
2023-01-06T23:42:34.447Z,19.50
2023-01-06T23:50:02.463Z,19.20
2023-01-06T23:52:30.605Z,19.80
2023-01-06T23:59:57.072Z,19.10
